Atlantic - Newfoundland: Past 24 Hour Conditions

 

Natashquan Airport

09:00 PM EST 23 November 2014
This table is a summary of hourly weather conditions for the past 24 hours.
Date / Time
(EST)
Wind(knots) Conditions Visibility(km) Pressure(kPa) Air tempC) Relative humidity(%) Dew pointC) Wind Chill
23 November 2014
21:00 N 3 Partly Cloudy 16 101.9 -10 73 -14 -13
20:00 NW 5 Cloudy 16 101.8 -8 71 -13 -13
19:00 WNW 4 Mainly Clear 16 101.8 -11 79 -14 -16
18:00 NW 4 Clear 16 101.7 -7 65 -13 -11
17:00 NW 10 Clear 16 101.5 -4 56 -12 -10
16:00 WNW 9 Clear 16 101.4 -3 55 -11 -9
15:00 WNW 10 gust 17 Sunny 16 101.3 -3 51 -12 -9
14:00 WNW 13 Sunny 16 101.0 -2 49 -12 -9
13:00 WNW 11 gust 18 Sunny 16 100.9 -2 48 -12 -8
12:00 WNW 16 Sunny 16 100.8 -2 49 -11 -9
11:00 NW 15 gust 21 Sunny 16 100.7 -2 53 -10 -9
10:00 NW 17 gust 22 Sunny 16 100.5 -2 58 -9 -9
9:00 WNW 16 gust 24 Sunny 16 100.4 -1 71 -6 -8
8:00 WNW 13 gust 24 Mostly Cloudy 16 100.3 0 81 -3 -6
7:00 W 15 gust 20 Precipitation 16 100.2 0 85 -2 *
6:00 W 11 gust 16 Cloudy 16 100.2 -1 86 -3 -7
5:00 W 15 gust 22 Cloudy 16 100.1 -1 85 -3 -7
4:00 WNW 13 Cloudy 16 100.1 -2 84 -4 -8
3:00 WNW 10 gust 16 Cloudy 16 100.1 -3 85 -5 -8
2:00 WNW 11 gust 16 Cloudy 16 100.1 -2 83 -5 -8
1:00 WNW 11 Light Snow 16 100.0 -3 85 -5 -9
0:00 WNW 11 gust 16 Light Snow 16 100.0 -3 89 -4 -9
22 November 2014
23:00 WNW 7 gust 15 Light Snow 16 100.1 -3 88 -5 -8
22:00 WSW 17 gust 25 Light Snow 5 100.1 -2 84 -4 -9
21:00 SW 13 gust 21 Light Snow 16 100.1 -3 79 -6 -9
 
Map of Atlantic - Newfoundland marine weather areas Southwestern Grand Banks - 44138 Banquereau - 44139 Tail of the Bank - 44140 Nickerson Bank - 44251 Northeast Burgeo Bank - 44255 Blanc-Sablon Airport Cap Whittle Chevery Natashquan Airport Heath Point Miscou Island Grand Étang Ingonish Beach North Mountain St.Paul Island J.A. Douglas McCurdy Sydney Airport Charlottetown Airport East Point North Cape Argentia Bonavista Burgeo Cape Race Corner Brook Daniel's Harbour Englee Ferolle Point La Scie Port aux Basques Rocky Harbour Sagona Island St. Anthony Airport St. John's Int'l Airport St. Lawrence Stephenville Airport Twillingate Winterland Wreckhouse Cartwright Airport Mary's Harbour Grates Cove Pool's Island Marticot Island Long Pond Îles de la Madeleine Airport
Legend: buoyBuoy land stationLand Station